AAL1549 KLAX-KSAN
Flight info
| Callsign | AAL1549 |
|---|---|
| Flight time | 0h 49m |
| Altitude | 13000 |
| Route | LAXX1 MZB |
| Aircraft | A20N/M-SDE2E3FGHIRWXY/LB1 |
Departure
| Time | 2026-04-26 01:49 |
|---|---|
| Airport | Los Angeles International Airport (KLAX) |
Arrival
| Time | 2026-04-26 02:38 |
|---|---|
| Airport | San Diego International Airport (KSAN) |
| Time | Latitude | Longitude | Altitude | Speed | Heading |
|---|---|---|---|---|---|
| 2026-04-26 01:25 | 33.94709 | -118.40332 | 125 ft | 0 kts | 234° |
| 2026-04-26 01:30 | 33.94715 | -118.40322 | 120 ft | 6 kts | 234° |
| 2026-04-26 01:31 | 33.94715 | -118.40279 | 121 ft | 6 kts | 354° |
| 2026-04-26 01:31 | 33.94710 | -118.40279 | 122 ft | 0 kts | 359° |
| 2026-04-26 01:34 | 33.94729 | -118.40273 | 123 ft | 8 kts | 15° |
| 2026-04-26 01:34 | 33.94807 | -118.40310 | 124 ft | 18 kts | 287° |
| 2026-04-26 01:34 | 33.94793 | -118.40494 | 125 ft | 26 kts | 262° |
| 2026-04-26 01:34 | 33.94768 | -118.40738 | 125 ft | 32 kts | 263° |
| 2026-04-26 01:35 | 33.94740 | -118.41022 | 125 ft | 34 kts | 261° |
| 2026-04-26 01:35 | 33.94703 | -118.41240 | 121 ft | 25 kts | 252° |
| 2026-04-26 01:35 | 33.94628 | -118.41372 | 123 ft | 18 kts | 179° |
| 2026-04-26 01:35 | 33.94501 | -118.41348 | 124 ft | 18 kts | 171° |
| 2026-04-26 01:36 | 33.94379 | -118.41315 | 124 ft | 17 kts | 156° |
| 2026-04-26 01:36 | 33.94270 | -118.41267 | 122 ft | 17 kts | 137° |
| 2026-04-26 01:36 | 33.94174 | -118.41208 | 123 ft | 16 kts | 173° |
| 2026-04-26 01:37 | 33.93972 | -118.41183 | 122 ft | 15 kts | 165° |
| 2026-04-26 01:37 | 33.93872 | -118.41166 | 123 ft | 15 kts | 173° |
| 2026-04-26 01:37 | 33.93805 | -118.41153 | 123 ft | 0 kts | 168° |
| 2026-04-26 01:38 | 33.93795 | -118.41149 | 121 ft | 5 kts | 161° |
| 2026-04-26 01:38 | 33.93767 | -118.41063 | 123 ft | 19 kts | 85° |
| 2026-04-26 01:38 | 33.93793 | -118.40847 | 125 ft | 32 kts | 82° |
| 2026-04-26 01:38 | 33.93824 | -118.40532 | 125 ft | 43 kts | 83° |
| 2026-04-26 01:39 | 33.93862 | -118.40161 | 123 ft | 45 kts | 83° |
| 2026-04-26 01:39 | 33.93894 | -118.39843 | 125 ft | 21 kts | 83° |
| 2026-04-26 01:39 | 33.93912 | -118.39666 | 123 ft | 22 kts | 83° |
| 2026-04-26 01:39 | 33.93932 | -118.39484 | 125 ft | 22 kts | 83° |
| 2026-04-26 01:40 | 33.93947 | -118.39324 | 125 ft | 16 kts | 83° |
| 2026-04-26 01:40 | 33.93962 | -118.39184 | 122 ft | 17 kts | 83° |
| 2026-04-26 01:40 | 33.93976 | -118.39035 | 125 ft | 18 kts | 83° |
| 2026-04-26 01:40 | 33.93992 | -118.38877 | 125 ft | 20 kts | 83° |
| 2026-04-26 01:41 | 33.94013 | -118.38672 | 121 ft | 30 kts | 83° |
| 2026-04-26 01:41 | 33.94030 | -118.38502 | 125 ft | 20 kts | 83° |
| 2026-04-26 01:41 | 33.94052 | -118.38304 | 123 ft | 20 kts | 82° |
| 2026-04-26 01:41 | 33.94059 | -118.38233 | 125 ft | 0 kts | 83° |
| 2026-04-26 01:42 | 33.94061 | -118.38217 | 125 ft | 7 kts | 83° |
| 2026-04-26 01:42 | 33.94064 | -118.38182 | 125 ft | 1 kts | 83° |
| 2026-04-26 01:42 | 33.94064 | -118.38181 | 125 ft | 1 kts | 83° |
| 2026-04-26 01:43 | 33.94065 | -118.38168 | 125 ft | 2 kts | 83° |
| 2026-04-26 01:43 | 33.94069 | -118.38137 | 125 ft | 5 kts | 83° |
| 2026-04-26 01:43 | 33.94074 | -118.38087 | 125 ft | 6 kts | 83° |
| 2026-04-26 01:43 | 33.94074 | -118.38086 | 125 ft | 0 kts | 83° |
| 2026-04-26 01:44 | 33.94074 | -118.38083 | 125 ft | 1 kts | 83° |
| 2026-04-26 01:45 | 33.94076 | -118.38047 | 125 ft | 8 kts | 91° |
| 2026-04-26 01:45 | 33.94035 | -118.38002 | 122 ft | 9 kts | 170° |
| 2026-04-26 01:45 | 33.93991 | -118.38044 | 123 ft | 9 kts | 245° |
| 2026-04-26 01:45 | 33.93977 | -118.38107 | 125 ft | 0 kts | 264° |
| 2026-04-26 01:48 | 33.93974 | -118.38132 | 125 ft | 22 kts | 264° |
| 2026-04-26 01:49 | 33.93918 | -118.38675 | 125 ft | 104 kts | 263° |
| 2026-04-26 01:49 | 33.93809 | -118.39793 | 264 ft | 151 kts | 263° |
| 2026-04-26 01:49 | 33.93721 | -118.41045 | 1102 ft | 151 kts | 265° |
| 2026-04-26 01:49 | 33.93673 | -118.42321 | 1941 ft | 152 kts | 268° |
| 2026-04-26 01:50 | 33.93642 | -118.43626 | 2592 ft | 163 kts | 266° |
| 2026-04-26 01:50 | 33.93578 | -118.44959 | 3068 ft | 180 kts | 266° |
| 2026-04-26 01:50 | 33.93266 | -118.46483 | 3522 ft | 200 kts | 239° |
| 2026-04-26 01:50 | 33.92188 | -118.47675 | 3917 ft | 225 kts | 213° |
| 2026-04-26 01:51 | 33.90752 | -118.48661 | 4439 ft | 247 kts | 211° |
| 2026-04-26 01:51 | 33.89203 | -118.49711 | 5135 ft | 259 kts | 211° |
| 2026-04-26 01:51 | 33.87626 | -118.50771 | 6082 ft | 262 kts | 211° |
| 2026-04-26 01:51 | 33.86011 | -118.51849 | 6672 ft | 268 kts | 211° |
| 2026-04-26 01:52 | 33.84385 | -118.52930 | 6895 ft | 266 kts | 211° |
| 2026-04-26 01:52 | 33.82756 | -118.54011 | 6988 ft | 268 kts | 211° |
| 2026-04-26 01:52 | 33.81148 | -118.55076 | 6992 ft | 266 kts | 211° |
| 2026-04-26 01:52 | 33.79520 | -118.56152 | 6996 ft | 268 kts | 211° |
| 2026-04-26 01:53 | 33.77876 | -118.57205 | 6999 ft | 268 kts | 205° |
| 2026-04-26 01:53 | 33.76032 | -118.57576 | 7001 ft | 277 kts | 178° |
| 2026-04-26 01:53 | 33.74183 | -118.56878 | 7001 ft | 284 kts | 151° |
| 2026-04-26 01:53 | 33.72751 | -118.55228 | 6996 ft | 293 kts | 123° |
| 2026-04-26 01:54 | 33.71930 | -118.52968 | 7477 ft | 297 kts | 111° |
| 2026-04-26 01:54 | 33.71216 | -118.50636 | 8467 ft | 296 kts | 111° |
| 2026-04-26 01:54 | 33.70515 | -118.48294 | 9375 ft | 301 kts | 111° |
| 2026-04-26 01:54 | 33.69817 | -118.45896 | 10194 ft | 307 kts | 111° |
| 2026-04-26 01:55 | 33.69102 | -118.43386 | 10583 ft | 329 kts | 111° |
| 2026-04-26 01:55 | 33.68330 | -118.40696 | 10826 ft | 352 kts | 111° |
| 2026-04-26 01:55 | 33.67521 | -118.37865 | 11408 ft | 362 kts | 111° |
| 2026-04-26 01:55 | 33.66491 | -118.35147 | 12118 ft | 362 kts | 127° |
| 2026-04-26 01:56 | 33.65033 | -118.32664 | 12721 ft | 366 kts | 130° |
| 2026-04-26 01:56 | 33.63527 | -118.30191 | 12930 ft | 368 kts | 130° |
| 2026-04-26 01:56 | 33.62008 | -118.27718 | 12998 ft | 368 kts | 130° |
| 2026-04-26 01:56 | 33.60492 | -118.25244 | 13004 ft | 367 kts | 130° |
| 2026-04-26 01:57 | 33.58981 | -118.22774 | 13000 ft | 368 kts | 130° |
| 2026-04-26 01:57 | 33.57469 | -118.20297 | 13002 ft | 367 kts | 130° |
| 2026-04-26 01:57 | 33.55960 | -118.17822 | 13001 ft | 367 kts | 130° |
| 2026-04-26 01:57 | 33.54451 | -118.15348 | 13001 ft | 368 kts | 130° |
| 2026-04-26 01:58 | 33.52943 | -118.12877 | 12999 ft | 367 kts | 130° |
| 2026-04-26 01:58 | 33.51435 | -118.10407 | 12997 ft | 367 kts | 130° |
| 2026-04-26 01:58 | 33.49923 | -118.07932 | 12997 ft | 367 kts | 130° |
| 2026-04-26 01:58 | 33.48411 | -118.05459 | 13000 ft | 367 kts | 130° |
| 2026-04-26 01:59 | 33.46900 | -118.02988 | 13000 ft | 367 kts | 130° |
| 2026-04-26 01:59 | 33.45393 | -118.00525 | 12999 ft | 367 kts | 130° |
| 2026-04-26 01:59 | 33.43880 | -117.98054 | 12998 ft | 368 kts | 130° |
| 2026-04-26 01:59 | 33.42364 | -117.95580 | 12998 ft | 368 kts | 130° |
| 2026-04-26 02:00 | 33.40923 | -117.93229 | 12996 ft | 368 kts | 130° |
| 2026-04-26 02:01 | 33.40409 | -117.92391 | 13002 ft | 368 kts | 130° |
| 2026-04-26 02:01 | 33.38894 | -117.89923 | 13003 ft | 368 kts | 130° |
| 2026-04-26 02:01 | 33.37379 | -117.87456 | 13000 ft | 367 kts | 130° |
| 2026-04-26 02:02 | 33.35865 | -117.84991 | 13005 ft | 367 kts | 130° |
| 2026-04-26 02:02 | 33.34367 | -117.82556 | 13008 ft | 367 kts | 130° |
| 2026-04-26 02:02 | 33.32852 | -117.80094 | 13007 ft | 367 kts | 130° |
| 2026-04-26 02:02 | 33.31336 | -117.77631 | 13007 ft | 367 kts | 130° |
| 2026-04-26 02:03 | 33.29823 | -117.75176 | 13012 ft | 367 kts | 130° |
| 2026-04-26 02:03 | 33.28309 | -117.72718 | 13010 ft | 367 kts | 130° |
| 2026-04-26 02:03 | 33.26795 | -117.70263 | 13011 ft | 366 kts | 131° |
| 2026-04-26 02:03 | 33.25284 | -117.67814 | 13011 ft | 366 kts | 131° |
| 2026-04-26 02:04 | 33.23779 | -117.65376 | 13015 ft | 365 kts | 131° |
| 2026-04-26 02:04 | 33.22272 | -117.62939 | 13013 ft | 364 kts | 131° |
| 2026-04-26 02:04 | 33.20764 | -117.60499 | 13014 ft | 364 kts | 131° |
| 2026-04-26 02:04 | 33.19261 | -117.58071 | 13013 ft | 363 kts | 131° |
| 2026-04-26 02:05 | 33.17757 | -117.55641 | 13011 ft | 363 kts | 131° |
| 2026-04-26 02:05 | 33.16261 | -117.53226 | 13013 ft | 362 kts | 131° |
| 2026-04-26 02:05 | 33.14764 | -117.50811 | 13012 ft | 362 kts | 131° |
| 2026-04-26 02:05 | 33.13287 | -117.48432 | 13015 ft | 361 kts | 131° |
| 2026-04-26 02:06 | 33.11793 | -117.46024 | 13015 ft | 361 kts | 132° |
| 2026-04-26 02:06 | 33.10298 | -117.43618 | 13012 ft | 361 kts | 132° |
| 2026-04-26 02:06 | 33.08805 | -117.41215 | 13013 ft | 360 kts | 132° |
| 2026-04-26 02:06 | 33.07312 | -117.38814 | 13012 ft | 360 kts | 132° |
| 2026-04-26 02:07 | 33.06069 | -117.36818 | 13012 ft | 360 kts | 132° |
| 2026-04-26 02:07 | 33.04496 | -117.34519 | 12957 ft | 356 kts | 136° |
| 2026-04-26 02:07 | 33.03148 | -117.32013 | 12647 ft | 363 kts | 122° |
| 2026-04-26 02:07 | 33.02039 | -117.29319 | 12193 ft | 361 kts | 121° |
| 2026-04-26 02:08 | 33.00934 | -117.26649 | 11715 ft | 358 kts | 121° |
| 2026-04-26 02:08 | 32.99827 | -117.23998 | 11244 ft | 356 kts | 121° |
| 2026-04-26 02:08 | 32.98718 | -117.21380 | 10783 ft | 353 kts | 121° |
| 2026-04-26 02:08 | 32.97617 | -117.18821 | 10403 ft | 348 kts | 121° |
| 2026-04-26 02:09 | 32.96530 | -117.16304 | 10266 ft | 334 kts | 121° |
| 2026-04-26 02:09 | 32.95490 | -117.13884 | 10145 ft | 321 kts | 121° |
| 2026-04-26 02:09 | 32.94497 | -117.11559 | 10032 ft | 309 kts | 121° |
| 2026-04-26 02:09 | 32.93540 | -117.09311 | 9769 ft | 302 kts | 121° |
| 2026-04-26 02:10 | 32.92591 | -117.07094 | 9384 ft | 299 kts | 121° |
| 2026-04-26 02:10 | 32.91644 | -117.04895 | 9062 ft | 294 kts | 121° |
| 2026-04-26 02:10 | 32.90728 | -117.02768 | 8957 ft | 283 kts | 121° |
| 2026-04-26 02:10 | 32.89855 | -117.00726 | 8852 ft | 271 kts | 121° |
| 2026-04-26 02:11 | 32.89024 | -116.98762 | 8747 ft | 259 kts | 121° |
| 2026-04-26 02:11 | 32.88242 | -116.96905 | 8550 ft | 251 kts | 121° |
| 2026-04-26 02:11 | 32.87459 | -116.95054 | 8198 ft | 249 kts | 121° |
| 2026-04-26 02:11 | 32.86676 | -116.93224 | 7847 ft | 248 kts | 121° |
| 2026-04-26 02:12 | 32.85888 | -116.91401 | 7502 ft | 246 kts | 121° |
| 2026-04-26 02:12 | 32.85098 | -116.89596 | 7170 ft | 245 kts | 121° |
| 2026-04-26 02:12 | 32.84291 | -116.87820 | 6829 ft | 243 kts | 127° |
| 2026-04-26 02:12 | 32.83083 | -116.86508 | 6476 ft | 233 kts | 159° |
| 2026-04-26 02:13 | 32.81553 | -116.85950 | 6115 ft | 228 kts | 171° |
| 2026-04-26 02:13 | 32.80017 | -116.85519 | 6020 ft | 229 kts | 171° |
| 2026-04-26 02:13 | 32.78456 | -116.85082 | 6010 ft | 231 kts | 171° |
| 2026-04-26 02:13 | 32.76897 | -116.84644 | 6001 ft | 228 kts | 171° |
| 2026-04-26 02:14 | 32.75366 | -116.84218 | 6007 ft | 230 kts | 171° |
| 2026-04-26 02:14 | 32.73795 | -116.83780 | 5904 ft | 228 kts | 171° |
| 2026-04-26 02:14 | 32.72282 | -116.83366 | 5579 ft | 225 kts | 174° |
| 2026-04-26 02:14 | 32.70751 | -116.83511 | 5177 ft | 217 kts | 207° |
| 2026-04-26 02:15 | 32.69662 | -116.84592 | 5023 ft | 204 kts | 242° |
| 2026-04-26 02:15 | 32.69252 | -116.86219 | 5000 ft | 213 kts | 260° |
| 2026-04-26 02:15 | 32.69024 | -116.87962 | 4989 ft | 213 kts | 261° |
| 2026-04-26 02:15 | 32.68801 | -116.89690 | 4841 ft | 209 kts | 261° |
| 2026-04-26 02:16 | 32.68584 | -116.91398 | 4562 ft | 209 kts | 261° |
| 2026-04-26 02:16 | 32.68362 | -116.93103 | 4230 ft | 210 kts | 261° |
| 2026-04-26 02:16 | 32.68138 | -116.94816 | 3900 ft | 208 kts | 261° |
| 2026-04-26 02:16 | 32.67920 | -116.96480 | 3795 ft | 201 kts | 261° |
| 2026-04-26 02:17 | 32.67693 | -116.98177 | 3799 ft | 213 kts | 261° |
| 2026-04-26 02:17 | 32.67669 | -116.99912 | 3791 ft | 212 kts | 284° |
| 2026-04-26 02:17 | 32.68331 | -117.01470 | 3638 ft | 213 kts | 300° |
| 2026-04-26 02:17 | 32.69131 | -117.02961 | 3261 ft | 216 kts | 300° |
| 2026-04-26 02:18 | 32.69814 | -117.04517 | 3086 ft | 207 kts | 290° |
| 2026-04-26 02:18 | 32.70263 | -117.06078 | 2895 ft | 195 kts | 284° |
| 2026-04-26 02:18 | 32.70608 | -117.07602 | 2551 ft | 192 kts | 285° |
| 2026-04-26 02:18 | 32.70964 | -117.09061 | 2177 ft | 178 kts | 283° |
| 2026-04-26 02:19 | 32.71286 | -117.10383 | 2024 ft | 154 kts | 284° |
| 2026-04-26 02:19 | 32.71553 | -117.11495 | 2001 ft | 129 kts | 283° |
| 2026-04-26 02:19 | 32.71806 | -117.12550 | 1893 ft | 135 kts | 283° |
| 2026-04-26 02:19 | 32.72066 | -117.13625 | 1526 ft | 136 kts | 284° |
| 2026-04-26 02:20 | 32.72321 | -117.14675 | 1323 ft | 132 kts | 284° |
| 2026-04-26 02:20 | 32.72534 | -117.15747 | 1297 ft | 133 kts | 268° |
| 2026-04-26 02:20 | 32.72437 | -117.16842 | 1636 ft | 134 kts | 261° |
| 2026-04-26 02:20 | 32.72312 | -117.17911 | 2203 ft | 130 kts | 261° |
| 2026-04-26 02:21 | 32.72177 | -117.19035 | 2462 ft | 148 kts | 261° |
| 2026-04-26 02:21 | 32.72021 | -117.20338 | 2491 ft | 170 kts | 261° |
| 2026-04-26 02:21 | 32.71844 | -117.21796 | 2467 ft | 185 kts | 261° |
| 2026-04-26 02:21 | 32.71650 | -117.23352 | 2728 ft | 196 kts | 261° |
| 2026-04-26 02:22 | 32.71447 | -117.25018 | 3086 ft | 212 kts | 261° |
| 2026-04-26 02:22 | 32.71007 | -117.26678 | 4030 ft | 210 kts | 236° |
| 2026-04-26 02:22 | 32.69891 | -117.27786 | 4972 ft | 217 kts | 204° |
| 2026-04-26 02:22 | 32.68368 | -117.28018 | 5645 ft | 229 kts | 173° |
| 2026-04-26 02:23 | 32.66859 | -117.27253 | 5917 ft | 248 kts | 143° |
| 2026-04-26 02:23 | 32.65677 | -117.25736 | 5989 ft | 251 kts | 131° |
| 2026-04-26 02:23 | 32.64575 | -117.24132 | 6014 ft | 251 kts | 131° |
| 2026-04-26 02:23 | 32.63491 | -117.22553 | 6013 ft | 249 kts | 131° |
| 2026-04-26 02:24 | 32.62428 | -117.20930 | 6009 ft | 250 kts | 121° |
| 2026-04-26 02:24 | 32.61957 | -117.18936 | 6016 ft | 253 kts | 89° |
| 2026-04-26 02:24 | 32.62146 | -117.16916 | 6016 ft | 245 kts | 81° |
| 2026-04-26 02:24 | 32.62391 | -117.14942 | 6021 ft | 242 kts | 81° |
| 2026-04-26 02:25 | 32.62786 | -117.12995 | 6014 ft | 243 kts | 71° |
| 2026-04-26 02:25 | 32.63296 | -117.11120 | 6009 ft | 232 kts | 71° |
| 2026-04-26 02:25 | 32.63778 | -117.09361 | 6016 ft | 216 kts | 71° |
| 2026-04-26 02:25 | 32.64249 | -117.07637 | 6018 ft | 222 kts | 71° |
| 2026-04-26 02:26 | 32.64710 | -117.05939 | 6016 ft | 208 kts | 71° |
| 2026-04-26 02:26 | 32.65213 | -117.04399 | 5994 ft | 196 kts | 53° |
| 2026-04-26 02:26 | 32.66259 | -117.03426 | 6006 ft | 190 kts | 15° |
| 2026-04-26 02:26 | 32.67522 | -117.02997 | 5991 ft | 190 kts | 11° |
| 2026-04-26 02:27 | 32.68814 | -117.02582 | 6003 ft | 199 kts | 11° |
| 2026-04-26 02:27 | 32.70186 | -117.02153 | 5989 ft | 209 kts | 11° |
| 2026-04-26 02:27 | 32.71604 | -117.01718 | 6007 ft | 211 kts | 11° |
| 2026-04-26 02:27 | 32.73036 | -117.01280 | 6003 ft | 212 kts | 11° |
| 2026-04-26 02:28 | 32.74469 | -117.00841 | 6010 ft | 214 kts | 11° |
| 2026-04-26 02:28 | 32.75891 | -117.00385 | 6003 ft | 213 kts | 18° |
| 2026-04-26 02:28 | 32.77069 | -116.99310 | 6012 ft | 220 kts | 53° |
| 2026-04-26 02:28 | 32.77564 | -116.97622 | 5905 ft | 217 kts | 87° |
| 2026-04-26 02:29 | 32.77382 | -116.95860 | 5481 ft | 214 kts | 101° |
| 2026-04-26 02:29 | 32.77127 | -116.94107 | 5112 ft | 218 kts | 101° |
| 2026-04-26 02:29 | 32.76862 | -116.92246 | 5020 ft | 240 kts | 101° |
| 2026-04-26 02:29 | 32.76677 | -116.90932 | 4993 ft | 243 kts | 102° |
| 2026-04-26 02:30 | 32.76033 | -116.89130 | 5008 ft | 235 kts | 133° |
| 2026-04-26 02:30 | 32.74233 | -116.87880 | 5005 ft | 223 kts | 177° |
| 2026-04-26 02:30 | 32.73217 | -116.87895 | 5005 ft | 219 kts | 190° |
| 2026-04-26 02:30 | 32.71711 | -116.88112 | 4822 ft | 216 kts | 191° |
| 2026-04-26 02:31 | 32.69731 | -116.88415 | 4232 ft | 217 kts | 191° |
| 2026-04-26 02:31 | 32.68734 | -116.88631 | 3954 ft | 212 kts | 204° |
| 2026-04-26 02:31 | 32.67627 | -116.89619 | 3837 ft | 200 kts | 239° |
| 2026-04-26 02:31 | 32.67183 | -116.91209 | 3800 ft | 211 kts | 260° |
| 2026-04-26 02:32 | 32.66949 | -116.92922 | 3794 ft | 208 kts | 261° |
| 2026-04-26 02:32 | 32.66749 | -116.94614 | 3791 ft | 205 kts | 270° |
| 2026-04-26 02:32 | 32.67067 | -116.96209 | 3770 ft | 198 kts | 297° |
| 2026-04-26 02:32 | 32.67763 | -116.97552 | 3708 ft | 180 kts | 300° |
| 2026-04-26 02:33 | 32.68357 | -116.98766 | 3576 ft | 160 kts | 293° |
| 2026-04-26 02:33 | 32.68703 | -116.99773 | 3494 ft | 139 kts | 287° |
| 2026-04-26 02:33 | 32.68980 | -117.00838 | 3180 ft | 134 kts | 283° |
| 2026-04-26 02:33 | 32.69232 | -117.01902 | 2827 ft | 134 kts | 283° |
| 2026-04-26 02:34 | 32.69490 | -117.02965 | 2486 ft | 133 kts | 283° |
| 2026-04-26 02:34 | 32.69745 | -117.04023 | 2169 ft | 132 kts | 283° |
| 2026-04-26 02:34 | 32.69993 | -117.05043 | 1948 ft | 125 kts | 284° |
| 2026-04-26 02:34 | 32.70236 | -117.06052 | 2019 ft | 133 kts | 284° |
| 2026-04-26 02:35 | 32.70487 | -117.07092 | 2010 ft | 129 kts | 284° |
| 2026-04-26 02:35 | 32.70737 | -117.08127 | 2010 ft | 132 kts | 283° |
| 2026-04-26 02:35 | 32.70990 | -117.09170 | 1852 ft | 133 kts | 284° |
| 2026-04-26 02:35 | 32.71242 | -117.10210 | 1634 ft | 130 kts | 283° |
| 2026-04-26 02:36 | 32.71492 | -117.11248 | 1410 ft | 131 kts | 283° |
| 2026-04-26 02:36 | 32.71651 | -117.11903 | 1302 ft | 131 kts | 284° |
| 2026-04-26 02:36 | 32.71832 | -117.12659 | 1118 ft | 128 kts | 283° |
| 2026-04-26 02:36 | 32.72054 | -117.13577 | 899 ft | 128 kts | 284° |
| 2026-04-26 02:37 | 32.72308 | -117.14622 | 676 ft | 129 kts | 284° |
| 2026-04-26 02:37 | 32.72559 | -117.15657 | 480 ft | 131 kts | 284° |
| 2026-04-26 02:37 | 32.72806 | -117.16688 | 266 ft | 129 kts | 287° |
| 2026-04-26 02:37 | 32.73059 | -117.17717 | 103 ft | 130 kts | 287° |
| 2026-04-26 02:38 | 32.73306 | -117.18733 | 25 ft | 118 kts | 285° |
| 2026-04-26 02:38 | 32.73489 | -117.19483 | 26 ft | 63 kts | 286° |
| 2026-04-26 02:38 | 32.73528 | -117.19755 | 30 ft | 10 kts | 259° |
| 2026-04-26 02:38 | 32.73497 | -117.19842 | 28 ft | 13 kts | 237° |
| 2026-04-26 02:39 | 32.73458 | -117.19946 | 27 ft | 14 kts | 208° |
| 2026-04-26 02:39 | 32.73397 | -117.20033 | 26 ft | 12 kts | 256° |
| 2026-04-26 02:39 | 32.73392 | -117.20054 | 31 ft | 0 kts | 254° |